createdAt,value
2023-05-21T00:00:18.698Z,95632.00
2023-05-21T00:01:19.854Z,95630.00
2023-05-21T00:02:20.153Z,95626.00
2023-05-21T00:03:19.082Z,95626.00
2023-05-21T00:04:18.768Z,95628.00
2023-05-21T00:05:18.823Z,95626.00
2023-05-21T00:06:20.065Z,95628.00
2023-05-21T00:07:18.882Z,95624.00
2023-05-21T00:08:19.989Z,95628.00
2023-05-21T00:09:19.032Z,95628.00
2023-05-21T00:10:18.987Z,95630.00
2023-05-21T00:11:20.115Z,95632.00
2023-05-21T00:12:20.099Z,95632.00
2023-05-21T00:13:19.251Z,95634.00
2023-05-21T00:14:20.142Z,95632.00
2023-05-21T00:15:20.171Z,95630.00
2023-05-21T00:16:20.253Z,95632.00
2023-05-21T00:17:20.264Z,95632.00
2023-05-21T00:18:20.289Z,95630.00
2023-05-21T00:19:20.360Z,95630.00
2023-05-21T00:20:20.535Z,95628.00
2023-05-21T00:21:19.611Z,95628.00
2023-05-21T00:22:19.673Z,95628.00
2023-05-21T00:23:20.613Z,95626.00
2023-05-21T00:24:19.592Z,95624.00
2023-05-21T00:25:20.568Z,95624.00
2023-05-21T00:26:19.820Z,95622.00
2023-05-21T00:27:19.772Z,95620.00
2023-05-21T00:28:19.756Z,95618.00
2023-05-21T00:29:20.860Z,95618.00
2023-05-21T00:30:21.030Z,95614.00
2023-05-21T00:31:21.049Z,95616.00
2023-05-21T00:32:19.858Z,95616.00
2023-05-21T00:33:20.884Z,95620.00
2023-05-21T00:34:21.172Z,95618.00
2023-05-21T00:35:21.206Z,95618.00
2023-05-21T00:36:20.276Z,95616.00
2023-05-21T00:37:20.271Z,95616.00
2023-05-21T00:38:20.265Z,95614.00
2023-05-21T00:39:21.143Z,95612.00
2023-05-21T00:40:20.267Z,95612.00
2023-05-21T00:41:20.317Z,95610.00
2023-05-21T00:42:20.381Z,95606.00
2023-05-21T00:43:20.267Z,95606.00
2023-05-21T00:44:20.471Z,95602.00
2023-05-21T00:45:20.355Z,95602.00
2023-05-21T00:46:20.577Z,95604.00
2023-05-21T00:47:21.496Z,95606.00
2023-05-21T00:48:21.489Z,95604.00
2023-05-21T00:49:21.543Z,95606.00
2023-05-21T00:50:20.720Z,95606.00
2023-05-21T00:51:20.681Z,95610.00
2023-05-21T00:52:21.651Z,95612.00
2023-05-21T00:53:21.944Z,95614.00
2023-05-21T00:54:21.820Z,95614.00
2023-05-21T00:55:21.792Z,95616.00
2023-05-21T00:56:20.837Z,95616.00
2023-05-21T00:57:22.147Z,95616.00
2023-05-21T00:58:21.974Z,95614.00
2023-05-21T00:59:22.196Z,95614.00
2023-05-21T01:00:22.068Z,95612.00
2023-05-21T01:01:21.134Z,95610.00
2023-05-21T01:02:21.162Z,95612.00
2023-05-21T01:03:21.349Z,95612.00
2023-05-21T01:04:21.235Z,95610.00
2023-05-21T01:05:22.352Z,95610.00
2023-05-21T01:06:21.391Z,95612.00
2023-05-21T01:07:21.321Z,95610.00
2023-05-21T01:08:22.456Z,95612.00
2023-05-21T01:09:21.399Z,95610.00
2023-05-21T01:10:22.477Z,95608.00
2023-05-21T01:11:21.710Z,95610.00
2023-05-21T01:12:21.592Z,95608.00
2023-05-21T01:13:21.700Z,95608.00
2023-05-21T01:14:22.704Z,95606.00
2023-05-21T01:15:21.814Z,95606.00
2023-05-21T01:16:22.041Z,95606.00
2023-05-21T01:17:21.806Z,95606.00
2023-05-21T01:18:21.896Z,95608.00
2023-05-21T01:19:21.897Z,95606.00
2023-05-21T01:20:22.868Z,95608.00
2023-05-21T01:21:21.927Z,95606.00
2023-05-21T01:22:22.952Z,95602.00
2023-05-21T01:23:22.246Z,95600.00
2023-05-21T01:24:23.257Z,95600.00
2023-05-21T01:25:22.281Z,95598.00
2023-05-21T01:26:22.238Z,95600.00
2023-05-21T01:27:23.195Z,95598.00
2023-05-21T01:28:22.236Z,95598.00
2023-05-21T01:29:22.324Z,95598.00
2023-05-21T01:30:22.334Z,95600.00
2023-05-21T01:31:22.629Z,95600.00
2023-05-21T01:32:22.643Z,95600.00
2023-05-21T01:33:22.531Z,95602.00
2023-05-21T01:34:22.571Z,95604.00
2023-05-21T01:35:22.675Z,95604.00
2023-05-21T01:36:22.626Z,95602.00
2023-05-21T01:37:22.818Z,95600.00
2023-05-21T01:38:23.873Z,95600.00
2023-05-21T01:39:22.766Z,95600.00
2023-05-21T01:40:22.833Z,95600.00
2023-05-21T01:41:23.903Z,95595.00
2023-05-21T01:42:22.912Z,95595.00
2023-05-21T01:43:22.985Z,95593.00
2023-05-21T01:44:24.155Z,95593.00
2023-05-21T01:45:23.070Z,95593.00
2023-05-21T01:46:23.244Z,95595.00
2023-05-21T01:47:23.141Z,95595.00
2023-05-21T01:48:23.473Z,95598.00
2023-05-21T01:49:23.317Z,95600.00
2023-05-21T01:50:23.271Z,95602.00
2023-05-21T01:51:24.305Z,95602.00
2023-05-21T01:52:24.370Z,95604.00
2023-05-21T01:53:24.420Z,95602.00
2023-05-21T01:54:23.536Z,95602.00
2023-05-21T01:55:23.490Z,95600.00
2023-05-21T01:56:24.741Z,95602.00
2023-05-21T01:57:24.736Z,95602.00
2023-05-21T01:58:24.685Z,95604.00
2023-05-21T01:59:23.747Z,95606.00
2023-05-21T02:00:24.734Z,95608.00
2023-05-21T02:01:25.048Z,95606.00
2023-05-21T02:02:25.237Z,95606.00
2023-05-21T02:03:25.050Z,95608.00
2023-05-21T02:04:23.962Z,95606.00
2023-05-21T02:05:25.095Z,95604.00
2023-05-21T02:06:25.175Z,95602.00
2023-05-21T02:07:24.098Z,95600.00
2023-05-21T02:08:25.143Z,95602.00
2023-05-21T02:09:25.388Z,95602.00
2023-05-21T02:10:25.371Z,95602.00
2023-05-21T02:11:24.285Z,95602.00
2023-05-21T02:12:24.339Z,95604.00
2023-05-21T02:13:26.517Z,95602.00
2023-05-21T02:14:24.621Z,95604.00
2023-05-21T02:15:25.551Z,95602.00
2023-05-21T02:16:24.630Z,95606.00
2023-05-21T02:17:25.772Z,95604.00
2023-05-21T02:18:24.851Z,95606.00
2023-05-21T02:19:24.898Z,95606.00
2023-05-21T02:20:25.812Z,95606.00
2023-05-21T02:21:25.891Z,95602.00
2023-05-21T02:22:26.093Z,95608.00
2023-05-21T02:23:24.953Z,95604.00
2023-05-21T02:24:24.965Z,95604.00
2023-05-21T02:25:25.021Z,95604.00
2023-05-21T02:26:25.089Z,95604.00
2023-05-21T02:27:25.295Z,95602.00
2023-05-21T02:28:26.192Z,95602.00
2023-05-21T02:29:25.466Z,95598.00
2023-05-21T02:30:26.346Z,95600.00
2023-05-21T02:31:26.367Z,95600.00
2023-05-21T02:32:26.498Z,95600.00
2023-05-21T02:33:26.459Z,95598.00
2023-05-21T02:34:26.859Z,95598.00
2023-05-21T02:35:25.667Z,95598.00
2023-05-21T02:36:25.858Z,95598.00
2023-05-21T02:37:25.660Z,95595.00
2023-05-21T02:38:26.829Z,95596.00
2023-05-21T02:39:26.829Z,95593.00
2023-05-21T02:40:26.812Z,95591.00
2023-05-21T02:41:27.103Z,95589.00
2023-05-21T02:42:26.057Z,95589.00
2023-05-21T02:43:26.985Z,95587.00
2023-05-21T02:44:27.040Z,95585.00
2023-05-21T02:45:27.093Z,95585.00
2023-05-21T02:46:26.242Z,95583.00
2023-05-21T02:47:27.389Z,95585.00
2023-05-21T02:48:27.216Z,95581.00
2023-05-21T02:49:26.477Z,95579.00
2023-05-21T02:50:27.296Z,95575.00
2023-05-21T02:51:26.587Z,95575.00
2023-05-21T02:52:26.425Z,95577.00
2023-05-21T02:53:26.473Z,95573.00
2023-05-21T02:54:26.698Z,95575.00
2023-05-21T02:55:26.619Z,95579.00
2023-05-21T02:56:26.769Z,95585.00
2023-05-21T02:57:26.754Z,95585.00
2023-05-21T02:58:26.741Z,95587.00
2023-05-21T02:59:26.806Z,95587.00
2023-05-21T03:00:27.066Z,95589.00
2023-05-21T03:01:27.084Z,95589.00
2023-05-21T03:02:27.376Z,95589.00
2023-05-21T03:03:28.454Z,95591.00
2023-05-21T03:04:28.246Z,95589.00
2023-05-21T03:05:27.276Z,95591.00
2023-05-21T03:06:28.250Z,95591.00
2023-05-21T03:07:27.517Z,95589.00
2023-05-21T03:08:27.543Z,95587.00
2023-05-21T03:09:28.570Z,95587.00
2023-05-21T03:10:28.605Z,95589.00
2023-05-21T03:11:27.512Z,95591.00
2023-05-21T03:12:27.621Z,95593.00
2023-05-21T03:13:27.780Z,95591.00
2023-05-21T03:14:27.628Z,95591.00
2023-05-21T03:15:28.891Z,95589.00
2023-05-21T03:16:28.842Z,95591.00
2023-05-21T03:17:28.837Z,95591.00
2023-05-21T03:18:28.880Z,95591.00
2023-05-21T03:19:29.162Z,95591.00
2023-05-21T03:20:28.974Z,95593.00
2023-05-21T03:21:28.020Z,95595.00
2023-05-21T03:22:28.090Z,95595.00
2023-05-21T03:23:29.123Z,95595.00
2023-05-21T03:24:28.224Z,95595.00
2023-05-21T03:25:29.394Z,95595.00
2023-05-21T03:26:28.372Z,95596.00
2023-05-21T03:27:29.338Z,95596.00
2023-05-21T03:28:29.376Z,95595.00
2023-05-21T03:29:29.437Z,95593.00
2023-05-21T03:30:28.487Z,95598.00
2023-05-21T03:31:29.645Z,95598.00
2023-05-21T03:32:28.648Z,95598.00
2023-05-21T03:33:28.723Z,95598.00
2023-05-21T03:34:29.679Z,95598.00
2023-05-21T03:35:29.757Z,95595.00
2023-05-21T03:36:28.775Z,95595.00
2023-05-21T03:37:28.835Z,95596.00
2023-05-21T03:38:28.888Z,95596.00
2023-05-21T03:39:30.006Z,95598.00
2023-05-21T03:40:30.215Z,95596.00
2023-05-21T03:41:29.065Z,95598.00
2023-05-21T03:42:29.128Z,95600.00
2023-05-21T03:43:29.334Z,95598.00
2023-05-21T03:44:30.256Z,95598.00
2023-05-21T03:45:29.334Z,95598.00
2023-05-21T03:46:30.571Z,95598.00
2023-05-21T03:47:29.639Z,95595.00
2023-05-21T03:48:29.535Z,95595.00
2023-05-21T03:49:30.598Z,95593.00
2023-05-21T03:50:29.659Z,95593.00
2023-05-21T03:51:29.652Z,95593.00
2023-05-21T03:52:30.720Z,95591.00
2023-05-21T03:53:29.821Z,95591.00
2023-05-21T03:54:29.812Z,95589.00
2023-05-21T03:55:30.978Z,95589.00
2023-05-21T03:56:31.020Z,95591.00
2023-05-21T03:57:30.168Z,95591.00
2023-05-21T03:58:30.215Z,95587.00
2023-05-21T03:59:30.140Z,95585.00
2023-05-21T04:00:30.206Z,95587.00
2023-05-21T04:01:30.227Z,95587.00
2023-05-21T04:02:30.367Z,95583.00
2023-05-21T04:03:30.537Z,95583.00
2023-05-21T04:04:30.505Z,95583.00
2023-05-21T04:05:31.582Z,95585.00
2023-05-21T04:06:30.525Z,95583.00
2023-05-21T04:07:30.589Z,95583.00
2023-05-21T04:08:30.923Z,95587.00
2023-05-21T04:09:30.718Z,95587.00
2023-05-21T04:10:30.776Z,95589.00
2023-05-21T04:11:31.025Z,95591.00
2023-05-21T04:12:30.873Z,95595.00
2023-05-21T04:13:31.109Z,95598.00
2023-05-21T04:14:30.970Z,95598.00
2023-05-21T04:15:31.172Z,95600.00
2023-05-21T04:16:31.221Z,95600.00
2023-05-21T04:17:31.222Z,95602.00
2023-05-21T04:18:32.312Z,95598.00
2023-05-21T04:19:31.342Z,95600.00
2023-05-21T04:20:32.355Z,95600.00
2023-05-21T04:21:31.407Z,95600.00
2023-05-21T04:22:32.529Z,95598.00
2023-05-21T04:23:31.711Z,95595.00
2023-05-21T04:24:31.611Z,95593.00
2023-05-21T04:25:31.698Z,95593.00
2023-05-21T04:26:31.644Z,95595.00
2023-05-21T04:27:32.789Z,95596.00
2023-05-21T04:28:31.927Z,95600.00
2023-05-21T04:29:32.822Z,95602.00
2023-05-21T04:30:32.123Z,95606.00
2023-05-21T04:31:32.232Z,95608.00
2023-05-21T04:32:33.188Z,95608.00
2023-05-21T04:33:32.097Z,95608.00
2023-05-21T04:34:33.121Z,95608.00
2023-05-21T04:35:33.273Z,95606.00
2023-05-21T04:36:32.251Z,95608.00
2023-05-21T04:37:33.298Z,95610.00
2023-05-21T04:38:33.668Z,95610.00
2023-05-21T04:39:33.538Z,95610.00
2023-05-21T04:40:33.459Z,95608.00
2023-05-21T04:41:33.622Z,95608.00
2023-05-21T04:42:32.666Z,95606.00
2023-05-21T04:43:32.524Z,95606.00
2023-05-21T04:44:32.641Z,95604.00
2023-05-21T04:45:33.412Z,95606.00
2023-05-21T04:46:32.625Z,95602.00
2023-05-21T04:47:32.423Z,95604.00
2023-05-21T04:48:32.460Z,95602.00
2023-05-21T04:49:32.629Z,95604.00
2023-05-21T04:50:33.552Z,95608.00
2023-05-21T04:51:33.592Z,95606.00
2023-05-21T04:52:32.385Z,95610.00
2023-05-21T04:53:32.370Z,95608.00
2023-05-21T04:54:32.381Z,95612.00
2023-05-21T04:55:33.366Z,95614.00
2023-05-21T04:56:33.519Z,95616.00
2023-05-21T04:57:32.531Z,95614.00
2023-05-21T04:58:32.600Z,95616.00
2023-05-21T04:59:32.366Z,95618.00
2023-05-21T05:00:32.661Z,95620.00
2023-05-21T05:01:33.682Z,95620.00
2023-05-21T05:02:33.630Z,95616.00
2023-05-21T05:03:32.825Z,95614.00
2023-05-21T05:04:32.668Z,95614.00
2023-05-21T05:05:32.679Z,95610.00
2023-05-21T05:06:33.851Z,95612.00
2023-05-21T05:07:32.844Z,95610.00
2023-05-21T05:08:33.850Z,95608.00
2023-05-21T05:09:34.004Z,95606.00
2023-05-21T05:10:34.098Z,95614.00
2023-05-21T05:11:34.047Z,95612.00
2023-05-21T05:12:34.070Z,95612.00
2023-05-21T05:13:34.296Z,95612.00
2023-05-21T05:14:34.432Z,95610.00
2023-05-21T05:15:33.284Z,95606.00
2023-05-21T05:16:33.599Z,95604.00
2023-05-21T05:17:34.534Z,95604.00
2023-05-21T05:18:33.642Z,95600.00
2023-05-21T05:19:33.831Z,95606.00
2023-05-21T05:20:33.679Z,95608.00
2023-05-21T05:21:34.813Z,95608.00
2023-05-21T05:22:33.635Z,95606.00
2023-05-21T05:23:33.732Z,95606.00
2023-05-21T05:24:34.859Z,95602.00
2023-05-21T05:25:34.065Z,95604.00
2023-05-21T05:26:35.020Z,95602.00
2023-05-21T05:27:35.029Z,95606.00
2023-05-21T05:28:35.026Z,95602.00
2023-05-21T05:29:34.105Z,95604.00
2023-05-21T05:30:35.289Z,95602.00
2023-05-21T05:31:35.254Z,95602.00
2023-05-21T05:32:34.253Z,95600.00
2023-05-21T05:33:35.336Z,95598.00
2023-05-21T05:34:34.401Z,95596.00
2023-05-21T05:35:35.610Z,95596.00
2023-05-21T05:36:34.568Z,95593.00
2023-05-21T05:37:35.701Z,95593.00
2023-05-21T05:38:35.564Z,95593.00
2023-05-21T05:39:34.718Z,95591.00
2023-05-21T05:40:35.702Z,95593.00
2023-05-21T05:41:35.886Z,95595.00
2023-05-21T05:42:35.824Z,95595.00
2023-05-21T05:43:35.892Z,95591.00
2023-05-21T05:44:34.880Z,95589.00
2023-05-21T05:45:36.120Z,95591.00
2023-05-21T05:46:35.129Z,95589.00
2023-05-21T05:47:35.310Z,95587.00
2023-05-21T05:48:36.237Z,95587.00
2023-05-21T05:49:35.146Z,95589.00
2023-05-21T05:50:35.208Z,95591.00
2023-05-21T05:51:35.279Z,95591.00
2023-05-21T05:52:36.395Z,95591.00
2023-05-21T05:53:35.346Z,95593.00
2023-05-21T05:54:35.483Z,95591.00
2023-05-21T05:55:36.852Z,95585.00
2023-05-21T05:56:35.500Z,95581.00
2023-05-21T05:57:35.757Z,95577.00
2023-05-21T05:58:36.606Z,95579.00
2023-05-21T05:59:35.856Z,95579.00
2023-05-21T06:00:35.707Z,95577.00
2023-05-21T06:01:35.982Z,95577.00
2023-05-21T06:02:35.883Z,95575.00
2023-05-21T06:03:36.259Z,95573.00
2023-05-21T06:04:36.008Z,95575.00
2023-05-21T06:05:37.110Z,95571.00
2023-05-21T06:06:37.206Z,95571.00
2023-05-21T06:07:37.030Z,95569.00
2023-05-21T06:08:38.177Z,95567.00
2023-05-21T06:09:36.127Z,95567.00
2023-05-21T06:10:36.182Z,95567.00
2023-05-21T06:11:37.253Z,95565.00
2023-05-21T06:12:36.285Z,95567.00
2023-05-21T06:13:36.633Z,95567.00
2023-05-21T06:14:36.472Z,95571.00
2023-05-21T06:15:37.710Z,95569.00
2023-05-21T06:16:36.512Z,95567.00
2023-05-21T06:17:37.728Z,95565.00
2023-05-21T06:18:37.833Z,95561.00
2023-05-21T06:19:37.641Z,95561.00
2023-05-21T06:20:37.598Z,95561.00
2023-05-21T06:21:36.646Z,95561.00
2023-05-21T06:22:37.692Z,95561.00
2023-05-21T06:23:36.715Z,95559.00
2023-05-21T06:24:36.749Z,95559.00
2023-05-21T06:25:37.970Z,95559.00
2023-05-21T06:26:37.830Z,95557.00
2023-05-21T06:27:36.862Z,95557.00
2023-05-21T06:28:37.953Z,95553.00
2023-05-21T06:29:37.969Z,95559.00
2023-05-21T06:30:37.963Z,95559.00
2023-05-21T06:31:37.004Z,95557.00
2023-05-21T06:32:38.158Z,95559.00
2023-05-21T06:33:38.234Z,95559.00
2023-05-21T06:34:37.126Z,95561.00
2023-05-21T06:35:38.312Z,95559.00
2023-05-21T06:36:37.236Z,95563.00
2023-05-21T06:37:38.314Z,95565.00
2023-05-21T06:38:38.260Z,95565.00
2023-05-21T06:39:38.376Z,95565.00
2023-05-21T06:40:37.334Z,95563.00
2023-05-21T06:41:37.556Z,95565.00
2023-05-21T06:42:38.408Z,95565.00
2023-05-21T06:43:37.608Z,95567.00
2023-05-21T06:44:38.459Z,95565.00
2023-05-21T06:45:37.959Z,95565.00
2023-05-21T06:46:38.741Z,95563.00
2023-05-21T06:47:38.671Z,95565.00
2023-05-21T06:48:38.598Z,95561.00
2023-05-21T06:49:37.580Z,95563.00
2023-05-21T06:50:38.779Z,95565.00
2023-05-21T06:51:38.657Z,95561.00
2023-05-21T06:52:38.705Z,95559.00
2023-05-21T06:53:37.786Z,95557.00
2023-05-21T06:54:37.890Z,95557.00
2023-05-21T06:55:38.922Z,95557.00
2023-05-21T06:56:38.755Z,95557.00
2023-05-21T06:57:37.772Z,95555.00
2023-05-21T06:58:37.818Z,95557.00
2023-05-21T06:59:38.846Z,95555.00
2023-05-21T07:00:37.857Z,95557.00
2023-05-21T07:01:38.257Z,95555.00
2023-05-21T07:02:38.055Z,95555.00
2023-05-21T07:03:38.113Z,95555.00
2023-05-21T07:04:37.951Z,95559.00
2023-05-21T07:05:38.423Z,95561.00
2023-05-21T07:06:39.003Z,95557.00
2023-05-21T07:07:39.211Z,95559.00
2023-05-21T07:08:38.080Z,95561.00
2023-05-21T07:09:38.107Z,95557.00
2023-05-21T07:10:39.260Z,95559.00
2023-05-21T07:11:38.119Z,95555.00
2023-05-21T07:12:38.140Z,95553.00
2023-05-21T07:13:39.300Z,95551.00
2023-05-21T07:14:38.194Z,95551.00
2023-05-21T07:15:38.460Z,95551.00
2023-05-21T07:16:39.327Z,95551.00
2023-05-21T07:17:39.290Z,95551.00
2023-05-21T07:18:38.273Z,95551.00
2023-05-21T07:19:38.368Z,95551.00
2023-05-21T07:20:38.321Z,95549.00
2023-05-21T07:21:38.383Z,95548.00
2023-05-21T07:22:39.611Z,95548.00
2023-05-21T07:23:38.526Z,95548.00
2023-05-21T07:24:39.400Z,95546.00
2023-05-21T07:25:38.627Z,95548.00
2023-05-21T07:26:39.526Z,95544.00
2023-05-21T07:27:38.659Z,95548.00
2023-05-21T07:28:38.485Z,95544.00
2023-05-21T07:29:38.705Z,95544.00
2023-05-21T07:30:38.527Z,95544.00
2023-05-21T07:31:39.833Z,95540.00
2023-05-21T07:32:38.610Z,95544.00
2023-05-21T07:33:38.628Z,95542.00
2023-05-21T07:34:39.611Z,95546.00
2023-05-21T07:35:38.876Z,95544.00
2023-05-21T07:36:38.645Z,95548.00
2023-05-21T07:37:38.774Z,95546.00
2023-05-21T07:38:39.880Z,95544.00
2023-05-21T07:39:39.836Z,95546.00
2023-05-21T07:40:39.843Z,95544.00
2023-05-21T07:41:38.863Z,95546.00
2023-05-21T07:42:38.758Z,95546.00
2023-05-21T07:43:39.809Z,95546.00
2023-05-21T07:44:39.909Z,95542.00
2023-05-21T07:45:39.078Z,95542.00
2023-05-21T07:46:40.164Z,95540.00
2023-05-21T07:47:39.121Z,95542.00
2023-05-21T07:48:38.952Z,95538.00
2023-05-21T07:49:38.994Z,95540.00
2023-05-21T07:50:39.862Z,95534.00
2023-05-21T07:51:38.936Z,95538.00
2023-05-21T07:52:40.239Z,95536.00
2023-05-21T07:53:38.901Z,95534.00
2023-05-21T07:54:39.945Z,95532.00
2023-05-21T07:55:40.082Z,95530.00
2023-05-21T07:56:40.055Z,95530.00
2023-05-21T07:57:39.039Z,95528.00
2023-05-21T07:58:39.044Z,95528.00
2023-05-21T07:59:39.134Z,95530.00
2023-05-21T08:00:39.011Z,95532.00
2023-05-21T08:01:40.021Z,95528.00
2023-05-21T08:02:40.107Z,95532.00
2023-05-21T08:03:40.383Z,95534.00
2023-05-21T08:04:41.187Z,95532.00
2023-05-21T08:05:39.401Z,95530.00
2023-05-21T08:06:40.080Z,95530.00
2023-05-21T08:07:40.313Z,95532.00
2023-05-21T08:08:40.147Z,95528.00
2023-05-21T08:09:40.126Z,95528.00
2023-05-21T08:10:40.244Z,95530.00
2023-05-21T08:11:39.222Z,95528.00
2023-05-21T08:12:39.140Z,95526.00
2023-05-21T08:13:40.244Z,95526.00
2023-05-21T08:14:39.291Z,95524.00
2023-05-21T08:15:39.239Z,95526.00
2023-05-21T08:16:40.304Z,95526.00
2023-05-21T08:17:39.341Z,95522.00
2023-05-21T08:18:39.220Z,95520.00
2023-05-21T08:19:39.460Z,95518.00
2023-05-21T08:20:39.395Z,95518.00
2023-05-21T08:21:40.388Z,95518.00
2023-05-21T08:22:40.347Z,95518.00
2023-05-21T08:23:40.379Z,95518.00
2023-05-21T08:24:40.286Z,95520.00
2023-05-21T08:25:40.355Z,95520.00
2023-05-21T08:26:39.295Z,95516.00
2023-05-21T08:27:40.312Z,95516.00
2023-05-21T08:28:39.290Z,95514.00
2023-05-21T08:29:40.302Z,95514.00
2023-05-21T08:30:39.299Z,95516.00
2023-05-21T08:31:39.398Z,95514.00
2023-05-21T08:32:39.329Z,95514.00
2023-05-21T08:33:39.325Z,95512.00
2023-05-21T08:34:39.379Z,95514.00
2023-05-21T08:35:39.547Z,95512.00
2023-05-21T08:36:39.367Z,95514.00
2023-05-21T08:37:40.355Z,95510.00
2023-05-21T08:38:39.540Z,95512.00
2023-05-21T08:39:39.357Z,95510.00
2023-05-21T08:40:39.364Z,95508.00
2023-05-21T08:41:40.423Z,95510.00
2023-05-21T08:42:39.603Z,95508.00
2023-05-21T08:43:40.447Z,95504.00
2023-05-21T08:44:39.432Z,95504.00
2023-05-21T08:45:40.619Z,95506.00
2023-05-21T08:46:39.569Z,95506.00
2023-05-21T08:47:40.606Z,95506.00
2023-05-21T08:48:40.439Z,95504.00
2023-05-21T08:49:40.528Z,95506.00
2023-05-21T08:50:40.405Z,95504.00
2023-05-21T08:51:40.485Z,95508.00
2023-05-21T08:52:40.443Z,95508.00
2023-05-21T08:53:39.540Z,95510.00
2023-05-21T08:54:40.558Z,95510.00
2023-05-21T08:55:40.448Z,95508.00
2023-05-21T08:56:40.508Z,95512.00
2023-05-21T08:57:40.504Z,95504.00
2023-05-21T08:58:39.427Z,95506.00
2023-05-21T08:59:39.490Z,95504.00
2023-05-21T09:00:39.444Z,95504.00
2023-05-21T09:01:39.642Z,95502.00
2023-05-21T09:02:39.636Z,95500.00
2023-05-21T09:03:39.558Z,95502.00
2023-05-21T09:04:39.639Z,95500.00
2023-05-21T09:05:39.427Z,95500.00
2023-05-21T09:06:39.452Z,95500.00
2023-05-21T09:07:40.434Z,95500.00
2023-05-21T09:08:39.436Z,95500.00
2023-05-21T09:09:40.703Z,95500.00
2023-05-21T09:10:39.517Z,95500.00
2023-05-21T09:11:40.657Z,95500.00
2023-05-21T09:12:40.464Z,95500.00
2023-05-21T09:13:40.643Z,95500.00
2023-05-21T09:14:39.641Z,95502.00
2023-05-21T09:15:39.522Z,95502.00
2023-05-21T09:16:40.487Z,95500.00
2023-05-21T09:17:39.616Z,95502.00
2023-05-21T09:18:39.427Z,95500.00
2023-05-21T09:19:40.604Z,95502.00
2023-05-21T09:20:40.548Z,95504.00
2023-05-21T09:21:40.562Z,95504.00
2023-05-21T09:22:40.431Z,95508.00
2023-05-21T09:23:40.498Z,95504.00
2023-05-21T09:24:40.504Z,95508.00
2023-05-21T09:25:39.719Z,95504.00
2023-05-21T09:26:39.480Z,95504.00
2023-05-21T09:27:39.645Z,95508.00
2023-05-21T09:28:40.408Z,95506.00
2023-05-21T09:29:39.562Z,95506.00
2023-05-21T09:30:39.769Z,95506.00
2023-05-21T09:31:40.657Z,95508.00
2023-05-21T09:32:39.441Z,95508.00
2023-05-21T09:33:39.396Z,95506.00
2023-05-21T09:34:40.621Z,95506.00
2023-05-21T09:35:39.627Z,95504.00
2023-05-21T09:36:39.387Z,95502.00
2023-05-21T09:37:40.429Z,95500.00
2023-05-21T09:38:39.413Z,95504.00
2023-05-21T09:39:39.401Z,95498.00
2023-05-21T09:40:39.439Z,95498.00
2023-05-21T09:41:39.455Z,95500.00
2023-05-21T09:42:39.482Z,95500.00
2023-05-21T09:43:39.388Z,95502.00
2023-05-21T09:44:39.424Z,95498.00
2023-05-21T09:45:39.378Z,95496.00
2023-05-21T09:46:40.397Z,95494.00
2023-05-21T09:47:40.610Z,95496.00
2023-05-21T09:48:39.371Z,95498.00
2023-05-21T09:49:40.434Z,95494.00
2023-05-21T09:50:39.477Z,95498.00
2023-05-21T09:51:39.378Z,95494.00
2023-05-21T09:52:41.866Z,95498.00
2023-05-21T09:53:39.521Z,95496.00
2023-05-21T09:54:39.457Z,95496.00
2023-05-21T09:55:40.409Z,95493.00
2023-05-21T09:56:39.520Z,95496.00
2023-05-21T09:57:39.542Z,95494.00
2023-05-21T09:58:40.523Z,95493.00
2023-05-21T09:59:39.419Z,95493.00
2023-05-21T10:00:40.362Z,95494.00
2023-05-21T10:01:39.282Z,95491.00
2023-05-21T10:02:40.423Z,95493.00
2023-05-21T10:03:40.344Z,95491.00
2023-05-21T10:04:39.321Z,95491.00
2023-05-21T10:05:40.443Z,95493.00
2023-05-21T10:06:39.284Z,95489.00
2023-05-21T10:07:39.235Z,95491.00
2023-05-21T10:08:39.232Z,95491.00
2023-05-21T10:09:39.302Z,95491.00
2023-05-21T10:10:39.216Z,95487.00
2023-05-21T10:11:40.421Z,95487.00
2023-05-21T10:12:40.200Z,95487.00
2023-05-21T10:13:39.193Z,95483.00
2023-05-21T10:14:40.406Z,95483.00
2023-05-21T10:15:40.187Z,95483.00
2023-05-21T10:16:39.305Z,95479.00
2023-05-21T10:17:39.323Z,95479.00
2023-05-21T10:18:40.157Z,95483.00
2023-05-21T10:19:39.177Z,95481.00
2023-05-21T10:20:39.328Z,95477.00
2023-05-21T10:21:39.181Z,95473.00
2023-05-21T10:22:39.118Z,95475.00
2023-05-21T10:23:39.246Z,95475.00
2023-05-21T10:24:40.121Z,95475.00
2023-05-21T10:25:39.124Z,95469.00
2023-05-21T10:26:39.155Z,95473.00
2023-05-21T10:27:39.347Z,95471.00
2023-05-21T10:28:40.128Z,95467.00
2023-05-21T10:29:40.117Z,95471.00
2023-05-21T10:30:39.417Z,95469.00
2023-05-21T10:31:40.167Z,95469.00
2023-05-21T10:32:40.191Z,95465.00
2023-05-21T10:33:39.072Z,95465.00
2023-05-21T10:34:40.127Z,95465.00
2023-05-21T10:35:40.309Z,95465.00
2023-05-21T10:36:38.995Z,95465.00
2023-05-21T10:37:39.073Z,95463.00
2023-05-21T10:38:40.001Z,95461.00
2023-05-21T10:39:40.152Z,95459.00
2023-05-21T10:40:39.281Z,95455.00
2023-05-21T10:41:38.977Z,95455.00
2023-05-21T10:42:39.988Z,95453.00
2023-05-21T10:43:39.948Z,95453.00
2023-05-21T10:44:40.000Z,95451.00
2023-05-21T10:45:40.019Z,95453.00
2023-05-21T10:46:38.939Z,95451.00
2023-05-21T10:47:39.952Z,95449.00
2023-05-21T10:48:40.014Z,95453.00
2023-05-21T10:49:39.901Z,95449.00
2023-05-21T10:50:40.035Z,95451.00
2023-05-21T10:51:38.919Z,95449.00
2023-05-21T10:52:38.875Z,95447.00
2023-05-21T10:53:38.966Z,95447.00
2023-05-21T10:54:38.856Z,95446.00
2023-05-21T10:55:39.936Z,95446.00
2023-05-21T10:56:39.866Z,95444.00
2023-05-21T10:57:39.842Z,95444.00
2023-05-21T10:58:39.949Z,95440.00
2023-05-21T10:59:39.899Z,95440.00
2023-05-21T11:00:39.829Z,95436.00
2023-05-21T11:01:38.887Z,95436.00
2023-05-21T11:02:38.916Z,95434.00
2023-05-21T11:03:39.879Z,95436.00
2023-05-21T11:04:38.788Z,95432.00
2023-05-21T11:05:39.822Z,95432.00
2023-05-21T11:06:39.788Z,95432.00
2023-05-21T11:07:39.806Z,95428.00
2023-05-21T11:08:39.766Z,95432.00
2023-05-21T11:09:39.871Z,95428.00
2023-05-21T11:10:40.097Z,95432.00
2023-05-21T11:11:39.747Z,95430.00
2023-05-21T11:12:39.822Z,95430.00
2023-05-21T11:13:39.814Z,95426.00
2023-05-21T11:14:38.823Z,95426.00
2023-05-21T11:15:39.868Z,95426.00
2023-05-21T11:16:39.917Z,95424.00
2023-05-21T11:17:38.977Z,95422.00
2023-05-21T11:18:38.888Z,95426.00
2023-05-21T11:19:39.218Z,95422.00
2023-05-21T11:20:38.965Z,95420.00
2023-05-21T11:21:38.957Z,95418.00
2023-05-21T11:22:39.975Z,95418.00
2023-05-21T11:23:40.022Z,95418.00
2023-05-21T11:24:38.987Z,95408.00
2023-05-21T11:25:40.015Z,95406.00
2023-05-21T11:26:40.032Z,95416.00
2023-05-21T11:27:40.066Z,95406.00
2023-05-21T11:28:39.117Z,95408.00
2023-05-21T11:29:39.322Z,95406.00
2023-05-21T11:30:41.020Z,95406.00
2023-05-21T11:31:40.380Z,95406.00
2023-05-21T11:32:40.521Z,95408.00
2023-05-21T11:33:39.562Z,95406.00
2023-05-21T11:34:40.425Z,95406.00
2023-05-21T11:35:40.530Z,95408.00
2023-05-21T11:36:39.576Z,95406.00
2023-05-21T11:37:39.642Z,95418.00
2023-05-21T11:38:39.738Z,95408.00
2023-05-21T11:39:39.861Z,95406.00
2023-05-21T11:40:40.002Z,95404.00
2023-05-21T11:41:39.792Z,95404.00
2023-05-21T11:42:39.941Z,95401.00
2023-05-21T11:43:40.929Z,95401.00
2023-05-21T11:44:41.095Z,95399.00